createdAt,value
2022-10-14T00:01:57.351Z,11.90
2022-10-14T00:04:23.888Z,9.57
2022-10-14T00:06:50.331Z,10.07
2022-10-14T00:09:17.019Z,8.63
2022-10-14T00:11:43.427Z,8.55
2022-10-14T00:14:16.119Z,7.90
2022-10-14T00:16:44.456Z,9.50
2022-10-14T00:19:11.268Z,10.02
2022-10-14T00:21:41.373Z,10.27
2022-10-14T00:24:08.581Z,7.90
2022-10-14T00:26:37.079Z,7.25
2022-10-14T00:29:06.223Z,8.33
2022-10-14T00:31:32.826Z,7.80
2022-10-14T00:33:59.469Z,7.28
2022-10-14T00:36:26.260Z,6.95
2022-10-14T00:38:54.185Z,6.90
2022-10-14T00:41:30.159Z,10.40
2022-10-14T00:43:59.190Z,8.32
2022-10-14T00:46:28.095Z,11.70
2022-10-14T00:48:56.242Z,10.10
2022-10-14T00:51:22.922Z,9.52
2022-10-14T00:53:49.681Z,7.17
2022-10-14T00:56:19.482Z,8.32
2022-10-14T00:58:45.938Z,8.05
2022-10-14T01:01:12.440Z,8.65
2022-10-14T01:03:40.344Z,8.52
2022-10-14T01:06:33.973Z,8.23
2022-10-14T01:09:25.288Z,7.05
2022-10-14T01:12:29.263Z,9.82
2022-10-14T01:15:19.039Z,8.13
2022-10-14T01:17:45.441Z,7.38
2022-10-14T01:20:31.429Z,9.73
2022-10-14T01:23:39.023Z,9.77
2022-10-14T01:26:42.610Z,9.80
2022-10-14T01:29:43.581Z,8.60
2022-10-14T01:32:46.761Z,7.32
2022-10-14T01:35:41.653Z,9.60
2022-10-14T01:38:17.291Z,7.60
2022-10-14T01:40:53.085Z,9.13
2022-10-14T01:43:22.914Z,10.52
2022-10-14T01:45:50.333Z,10.32
2022-10-14T01:48:21.389Z,9.90
2022-10-14T01:50:51.065Z,7.88
2022-10-14T01:53:25.884Z,7.00
2022-10-14T01:55:55.865Z,9.50
2022-10-14T01:58:26.560Z,9.05
2022-10-14T02:00:53.073Z,8.87
2022-10-14T02:03:19.455Z,9.45
2022-10-14T02:05:56.098Z,11.07
2022-10-14T02:08:52.474Z,6.82
2022-10-14T02:11:21.304Z,7.47
2022-10-14T02:13:58.955Z,7.57
2022-10-14T02:16:28.144Z,6.75
2022-10-14T02:19:29.290Z,6.63
2022-10-14T02:22:04.564Z,7.18
2022-10-14T02:24:35.427Z,7.22
2022-10-14T02:27:05.896Z,5.90
2022-10-14T02:29:34.571Z,5.53
2022-10-14T02:32:04.733Z,6.68
2022-10-14T02:34:31.720Z,4.97
2022-10-14T02:36:59.519Z,5.35
2022-10-14T02:39:30.779Z,5.93
2022-10-14T02:41:57.493Z,5.20
2022-10-14T02:44:23.960Z,6.75
2022-10-14T02:46:50.377Z,12.55
2022-10-14T02:49:17.958Z,8.18
2022-10-14T02:51:44.375Z,7.87
2022-10-14T02:54:10.776Z,5.05
2022-10-14T02:56:37.658Z,6.47
2022-10-14T02:59:04.090Z,6.10
2022-10-14T03:01:35.043Z,5.70
2022-10-14T03:04:03.728Z,6.97
2022-10-14T03:06:30.085Z,7.47
2022-10-14T03:08:56.527Z,6.40
2022-10-14T03:11:22.903Z,7.20
2022-10-14T03:13:49.348Z,6.22
2022-10-14T03:16:15.739Z,7.73
2022-10-14T03:18:42.155Z,6.10
2022-10-14T03:21:08.502Z,6.72
2022-10-14T03:23:34.964Z,6.05
2022-10-14T03:26:01.486Z,7.32
2022-10-14T03:28:28.128Z,7.30
2022-10-14T03:30:54.549Z,9.32
2022-10-14T03:33:22.132Z,12.93
2022-10-14T03:35:50.915Z,18.23
2022-10-14T03:38:17.379Z,8.88
2022-10-14T03:40:44.419Z,10.03
2022-10-14T03:43:10.805Z,12.57
2022-10-14T03:45:37.273Z,10.73
2022-10-14T03:48:03.742Z,12.40
2022-10-14T03:50:30.102Z,12.73
2022-10-14T03:52:56.457Z,14.53
2022-10-14T03:55:23.108Z,12.13
2022-10-14T03:57:49.555Z,13.93
2022-10-14T04:00:16.456Z,14.88
2022-10-14T04:02:43.194Z,14.57
2022-10-14T04:05:10.399Z,13.63
2022-10-14T04:07:36.816Z,16.90
2022-10-14T04:10:03.993Z,15.77
2022-10-14T04:12:30.512Z,16.35
2022-10-14T04:14:57.206Z,19.50
2022-10-14T04:17:25.044Z,17.20
2022-10-14T04:19:52.122Z,18.42
2022-10-14T04:22:19.737Z,18.80
2022-10-14T04:24:46.443Z,18.23
2022-10-14T04:27:12.870Z,17.35
2022-10-14T04:29:39.333Z,16.43
2022-10-14T04:32:05.740Z,18.73
2022-10-14T04:34:32.259Z,16.45
2022-10-14T04:36:58.613Z,16.85
2022-10-14T04:39:25.019Z,16.90
2022-10-14T04:41:51.473Z,16.37
2022-10-14T04:44:17.980Z,15.48
2022-10-14T04:46:44.358Z,15.43
2022-10-14T04:49:12.569Z,14.55
2022-10-14T04:51:38.940Z,15.18
2022-10-14T04:54:06.253Z,23.57
2022-10-14T04:56:32.768Z,17.38
2022-10-14T04:58:59.230Z,17.70
2022-10-14T05:01:29.071Z,16.05
2022-10-14T05:03:58.001Z,14.15
2022-10-14T05:06:24.589Z,14.83
2022-10-14T05:08:51.231Z,13.23
2022-10-14T05:11:17.645Z,14.75
2022-10-14T05:13:44.042Z,15.70
2022-10-14T05:16:10.555Z,20.75
2022-10-14T05:18:37.295Z,16.33
2022-10-14T05:21:03.873Z,15.23
2022-10-14T05:23:30.345Z,16.92
2022-10-14T05:25:56.758Z,22.65
2022-10-14T05:28:23.213Z,21.85
2022-10-14T05:30:49.920Z,26.40
2022-10-14T05:33:16.472Z,24.05
2022-10-14T05:35:58.473Z,24.48
2022-10-14T05:38:25.460Z,27.73
2022-10-14T05:40:54.012Z,27.25
2022-10-14T05:43:20.940Z,25.60
2022-10-14T05:45:47.630Z,28.48
2022-10-14T05:48:14.087Z,28.83
2022-10-14T05:50:42.600Z,27.80
2022-10-14T05:53:09.531Z,26.80
2022-10-14T05:55:36.195Z,25.30
2022-10-14T05:58:05.723Z,23.23
2022-10-14T06:00:32.332Z,26.50
2022-10-14T06:02:58.914Z,26.67
2022-10-14T06:05:25.799Z,22.50
2022-10-14T06:07:52.259Z,21.83
2022-10-14T06:10:18.877Z,24.15
2022-10-14T06:12:45.348Z,23.02
2022-10-14T06:15:11.812Z,19.98
2022-10-14T06:17:38.176Z,18.92
2022-10-14T06:20:04.958Z,23.17
2022-10-14T06:22:31.421Z,19.70
2022-10-14T06:25:01.761Z,22.00
2022-10-14T06:27:30.710Z,18.30
2022-10-14T06:29:57.174Z,21.35
2022-10-14T06:32:24.168Z,21.20
2022-10-14T06:34:50.955Z,21.20
2022-10-14T06:37:17.572Z,21.50
2022-10-14T06:39:45.033Z,22.65
2022-10-14T06:42:13.179Z,18.38
2022-10-14T06:44:39.844Z,18.83
2022-10-14T06:47:09.429Z,17.23
2022-10-14T06:49:35.883Z,15.70
2022-10-14T06:52:02.861Z,14.65
2022-10-14T06:54:29.241Z,18.85
2022-10-14T06:56:55.636Z,12.07
2022-10-14T06:59:22.179Z,13.02
2022-10-14T07:01:48.710Z,13.07
2022-10-14T07:04:15.237Z,12.25
2022-10-14T07:06:41.770Z,13.07
2022-10-14T07:09:08.283Z,13.27
2022-10-14T07:11:34.674Z,13.80
2022-10-14T07:14:01.192Z,14.10
2022-10-14T07:16:28.344Z,14.05
2022-10-14T07:18:54.947Z,13.45
2022-10-14T07:21:21.647Z,15.33
2022-10-14T07:23:48.013Z,17.02
2022-10-14T07:26:14.387Z,16.00
2022-10-14T07:28:40.881Z,15.37
2022-10-14T07:31:10.068Z,17.48
2022-10-14T07:36:15.069Z,17.52
2022-10-14T07:38:44.020Z,20.95
2022-10-14T07:41:17.110Z,21.05
2022-10-14T07:43:48.587Z,17.65
2022-10-14T07:46:16.937Z,21.43
2022-10-14T07:48:56.749Z,22.85
2022-10-14T07:51:23.887Z,18.30
2022-10-14T07:53:50.528Z,17.42
2022-10-14T07:56:16.977Z,16.48
2022-10-14T07:58:44.623Z,18.73
2022-10-14T08:01:11.213Z,17.42
2022-10-14T08:03:37.896Z,15.60
2022-10-14T08:06:05.479Z,18.77
2022-10-14T08:08:32.732Z,16.15
2022-10-14T08:11:07.677Z,13.27
2022-10-14T08:13:34.919Z,13.98
2022-10-14T08:16:02.481Z,14.80
2022-10-14T08:18:29.331Z,14.90
2022-10-14T08:20:55.904Z,16.83
2022-10-14T08:23:22.321Z,17.97
2022-10-14T08:25:49.807Z,17.02
2022-10-14T08:28:16.420Z,18.85
2022-10-14T08:30:43.136Z,20.60
2022-10-14T08:33:09.579Z,21.23
2022-10-14T08:35:35.979Z,17.73
2022-10-14T08:38:02.775Z,17.80
2022-10-14T08:40:30.906Z,16.35
2022-10-14T08:43:08.099Z,18.63
2022-10-14T08:45:47.614Z,17.00
2022-10-14T08:48:21.637Z,11.77
2022-10-14T08:50:57.020Z,13.93
2022-10-14T08:53:28.674Z,12.45
2022-10-14T08:56:00.377Z,9.95
2022-10-14T08:58:33.455Z,8.68
2022-10-14T09:01:27.896Z,7.90
2022-10-14T09:03:59.366Z,8.02
2022-10-14T09:06:28.354Z,8.57
2022-10-14T09:08:59.908Z,10.10
2022-10-14T09:11:32.101Z,12.85
2022-10-14T09:14:02.668Z,10.93
2022-10-14T09:16:32.986Z,9.50
2022-10-14T09:19:21.270Z,12.60
2022-10-14T09:21:54.078Z,14.10
2022-10-14T09:24:25.481Z,12.70
2022-10-14T09:26:58.276Z,15.73
2022-10-14T09:29:34.310Z,15.35
2022-10-14T09:32:15.297Z,13.55
2022-10-14T09:34:47.567Z,13.15
2022-10-14T09:37:28.776Z,12.13
2022-10-14T09:40:08.525Z,12.50
2022-10-14T09:42:50.349Z,13.68
2022-10-14T09:45:20.506Z,13.05
2022-10-14T09:47:55.805Z,10.65
2022-10-14T09:50:51.481Z,12.07
2022-10-14T09:53:27.485Z,7.87
2022-10-14T09:56:00.699Z,8.13
2022-10-14T09:58:36.185Z,8.75
2022-10-14T10:01:02.884Z,9.07
2022-10-14T10:03:35.399Z,6.57
2022-10-14T10:06:11.055Z,6.83
2022-10-14T10:08:42.125Z,7.43
2022-10-14T10:11:13.854Z,6.38
2022-10-14T10:13:44.982Z,8.43
2022-10-14T10:16:26.541Z,8.60
2022-10-14T10:18:55.744Z,8.03
2022-10-14T10:21:30.289Z,9.05
2022-10-14T10:24:02.472Z,9.48
2022-10-14T10:26:34.792Z,9.73
2022-10-14T10:29:05.264Z,12.40
2022-10-14T10:31:42.788Z,12.83
2022-10-14T10:34:30.554Z,13.85
2022-10-14T10:37:05.404Z,17.63
2022-10-14T10:39:34.787Z,16.67
2022-10-14T10:42:19.790Z,18.08
2022-10-14T10:45:16.258Z,23.57
2022-10-14T10:47:56.724Z,20.85
2022-10-14T10:50:30.222Z,24.38
2022-10-14T10:53:34.469Z,23.08
2022-10-14T10:56:13.596Z,21.35
2022-10-14T10:58:42.150Z,24.90
2022-10-14T11:01:26.271Z,25.60
2022-10-14T11:03:58.864Z,24.95
2022-10-14T11:07:16.397Z,21.13
2022-10-14T11:10:26.049Z,23.02
2022-10-14T11:13:00.057Z,24.83
2022-10-14T11:15:31.230Z,20.40
2022-10-14T11:17:57.643Z,24.83
2022-10-14T11:20:36.897Z,19.98
2022-10-14T11:23:34.789Z,17.42
2022-10-14T11:26:21.073Z,25.27
2022-10-14T11:29:08.197Z,18.45
2022-10-14T11:31:51.700Z,20.10
2022-10-14T11:34:28.373Z,17.25
2022-10-14T11:37:16.750Z,19.25
2022-10-14T11:39:54.480Z,16.70
2022-10-14T11:42:25.943Z,15.68
2022-10-14T11:45:06.025Z,11.70
2022-10-14T11:47:35.565Z,16.75
2022-10-14T11:50:14.127Z,13.02
2022-10-14T11:52:52.929Z,15.67
2022-10-14T11:55:25.308Z,15.88
2022-10-14T11:57:59.149Z,15.68
2022-10-14T12:00:45.686Z,15.02
2022-10-14T12:03:23.468Z,12.85
2022-10-14T12:06:15.303Z,15.63
2022-10-14T12:08:55.298Z,16.23
2022-10-14T12:11:29.794Z,17.17
2022-10-14T12:14:15.358Z,14.20
2022-10-14T12:16:44.379Z,13.43
2022-10-14T12:19:15.306Z,13.87
2022-10-14T12:22:02.622Z,10.98
2022-10-14T12:24:39.792Z,13.75
2022-10-14T12:27:12.079Z,10.05
2022-10-14T12:29:45.224Z,8.65
2022-10-14T12:32:21.196Z,8.80
2022-10-14T12:34:58.958Z,7.20
2022-10-14T12:37:32.447Z,5.82
2022-10-14T12:40:01.915Z,10.60
2022-10-14T12:42:31.025Z,7.53
2022-10-14T12:45:01.565Z,5.40
2022-10-14T12:47:35.154Z,4.47
2022-10-14T12:50:23.915Z,4.60
2022-10-14T12:53:00.530Z,4.78
2022-10-14T12:55:30.015Z,4.95
2022-10-14T12:58:02.098Z,5.20
2022-10-14T13:00:36.586Z,5.78
2022-10-14T13:03:14.987Z,4.70
2022-10-14T13:05:43.715Z,4.55
2022-10-14T13:08:28.434Z,5.78
2022-10-14T13:10:54.794Z,4.93
2022-10-14T13:13:44.780Z,5.63
2022-10-14T13:16:31.165Z,5.60
2022-10-14T13:19:01.788Z,5.85
2022-10-14T13:21:52.715Z,6.45
2022-10-14T13:24:41.670Z,4.57
2022-10-14T13:27:19.684Z,5.63
2022-10-14T13:30:05.605Z,4.72
2022-10-14T13:32:42.742Z,4.18
2022-10-14T13:35:27.314Z,6.07
2022-10-14T13:38:03.639Z,4.50
2022-10-14T13:40:36.932Z,5.07
2022-10-14T13:43:19.949Z,4.40
2022-10-14T13:46:12.316Z,4.95
2022-10-14T13:48:51.692Z,4.50
2022-10-14T13:51:52.518Z,5.23
2022-10-14T13:54:24.126Z,5.40
2022-10-14T13:57:53.648Z,4.63
2022-10-14T14:02:51.475Z,6.25
2022-10-14T14:05:20.785Z,5.40
2022-10-14T14:08:30.604Z,5.72
2022-10-14T14:10:42.522Z,4.63
2022-10-14T14:13:13.345Z,5.65
2022-10-14T14:15:40.425Z,5.40
2022-10-14T14:18:43.324Z,5.83
2022-10-14T14:21:25.006Z,5.53
2022-10-14T14:23:57.017Z,5.13
2022-10-14T14:26:33.736Z,6.20
2022-10-14T14:29:04.954Z,7.15
2022-10-14T14:32:01.356Z,8.00
2022-10-14T14:34:21.152Z,9.90
2022-10-14T14:36:51.119Z,6.55
2022-10-14T14:39:26.136Z,5.95
2022-10-14T14:41:54.741Z,7.88
2022-10-14T14:44:26.408Z,6.27
2022-10-14T14:46:57.771Z,4.57
2022-10-14T14:49:33.310Z,5.93
2022-10-14T14:52:01.361Z,4.50
2022-10-14T14:54:28.874Z,3.72
2022-10-14T14:57:03.862Z,3.70
2022-10-14T14:59:32.454Z,3.80
2022-10-14T15:02:01.062Z,4.05
2022-10-14T15:04:30.611Z,3.88
2022-10-14T15:07:20.097Z,4.43
2022-10-14T15:09:51.447Z,3.90
2022-10-14T15:12:21.864Z,4.78
2022-10-14T15:14:54.584Z,4.00
2022-10-14T15:17:29.175Z,4.10
2022-10-14T15:19:57.725Z,4.22
2022-10-14T15:22:36.449Z,4.00
2022-10-14T15:25:22.797Z,3.67
2022-10-14T15:27:52.381Z,3.85
2022-10-14T15:30:27.225Z,5.22
2022-10-14T15:33:02.017Z,4.10
2022-10-14T15:35:29.406Z,4.50
2022-10-14T15:37:56.280Z,4.95
2022-10-14T15:40:27.817Z,9.23
2022-10-14T15:42:54.297Z,5.00
2022-10-14T15:45:21.745Z,7.88
2022-10-14T15:47:58.599Z,9.33
2022-10-14T15:50:26.104Z,15.27
2022-10-14T15:52:54.568Z,6.15
2022-10-14T15:55:24.262Z,4.05
2022-10-14T15:57:52.288Z,5.10
2022-10-14T16:00:21.689Z,4.43
2022-10-14T16:02:51.512Z,5.18
2022-10-14T16:05:20.085Z,5.90
2022-10-14T16:07:48.270Z,5.55
2022-10-14T16:10:17.135Z,4.35
2022-10-14T16:12:43.677Z,5.90
2022-10-14T16:15:37.814Z,5.57
2022-10-14T16:18:04.474Z,5.78
2022-10-14T16:20:31.232Z,7.00
2022-10-14T16:22:58.601Z,7.35
2022-10-14T16:25:43.424Z,5.67
2022-10-14T16:28:11.178Z,6.20
2022-10-14T16:30:40.090Z,5.72
2022-10-14T16:33:07.315Z,5.60
2022-10-14T16:35:33.842Z,6.50
2022-10-14T16:38:00.320Z,5.93
2022-10-14T16:40:26.709Z,4.97
2022-10-14T16:42:53.475Z,14.23
2022-10-14T16:45:19.902Z,5.50
2022-10-14T16:47:46.395Z,5.43
2022-10-14T16:50:13.531Z,5.73
2022-10-14T16:53:00.854Z,5.32
2022-10-14T16:55:30.917Z,6.40
2022-10-14T16:57:57.545Z,5.43
2022-10-14T17:00:24.009Z,6.82
2022-10-14T17:02:50.524Z,10.87
2022-10-14T17:05:17.200Z,10.05
2022-10-14T17:07:43.698Z,8.75
2022-10-14T17:10:10.114Z,6.80
2022-10-14T17:12:36.823Z,5.22
2022-10-14T17:15:03.679Z,4.77
2022-10-14T17:17:30.101Z,8.30
2022-10-14T17:19:56.472Z,5.55
2022-10-14T17:22:23.872Z,5.63
2022-10-14T17:24:50.779Z,8.35
2022-10-14T17:27:24.046Z,6.70
2022-10-14T17:29:50.841Z,7.97
2022-10-14T17:32:17.877Z,8.02
2022-10-14T17:34:44.309Z,11.20
2022-10-14T17:37:10.685Z,7.45
2022-10-14T17:39:37.314Z,7.17
2022-10-14T17:42:03.908Z,7.90
2022-10-14T17:44:30.270Z,9.57
2022-10-14T17:46:57.143Z,7.97
2022-10-14T17:49:23.612Z,10.50
2022-10-14T17:51:50.050Z,8.23
2022-10-14T17:54:16.472Z,8.32
2022-10-14T17:56:43.173Z,8.90
2022-10-14T17:59:12.038Z,11.20
2022-10-14T18:04:24.906Z,10.13
2022-10-14T18:06:52.622Z,12.40
2022-10-14T18:09:19.025Z,14.43
2022-10-14T18:14:34.009Z,11.60
2022-10-14T18:17:00.473Z,12.97
2022-10-14T18:19:27.539Z,9.85
2022-10-14T18:21:53.997Z,10.68
2022-10-14T18:24:20.450Z,9.63
2022-10-14T18:26:50.090Z,8.68
2022-10-14T18:29:16.511Z,9.93
2022-10-14T18:31:43.030Z,10.27
2022-10-14T18:34:11.622Z,12.88
2022-10-14T18:36:38.181Z,9.25
2022-10-14T18:39:07.116Z,10.20
2022-10-14T18:41:34.551Z,9.97
2022-10-14T18:44:01.003Z,10.05
2022-10-14T18:46:30.757Z,8.35
2022-10-14T18:48:58.994Z,8.48
2022-10-14T18:51:28.722Z,8.77
2022-10-14T18:54:00.365Z,10.97
2022-10-14T18:56:30.507Z,11.50
2022-10-14T19:01:34.899Z,5.55
2022-10-14T19:04:02.064Z,4.63
2022-10-14T19:06:28.444Z,4.83
2022-10-14T19:08:54.855Z,4.85
2022-10-14T19:11:23.620Z,5.35
2022-10-14T19:13:52.436Z,4.10
2022-10-14T19:16:24.223Z,6.55
2022-10-14T19:18:59.378Z,6.67
2022-10-14T19:21:33.437Z,5.68
2022-10-14T19:24:02.066Z,4.07
2022-10-14T19:26:31.595Z,3.55
2022-10-14T19:28:59.811Z,4.38
2022-10-14T19:31:29.912Z,4.20
2022-10-14T19:33:59.481Z,3.75
2022-10-14T19:36:26.419Z,3.40
2022-10-14T19:38:57.965Z,3.70
2022-10-14T19:41:29.493Z,6.60
2022-10-14T19:43:57.509Z,6.40
2022-10-14T19:46:27.601Z,3.20
2022-10-14T19:48:59.639Z,3.08
2022-10-14T19:51:26.148Z,3.28
2022-10-14T19:53:54.558Z,2.28
2022-10-14T19:56:21.038Z,3.47
2022-10-14T19:58:51.823Z,3.95
2022-10-14T20:01:20.222Z,2.70
2022-10-14T20:03:47.049Z,2.75
2022-10-14T20:06:14.146Z,2.58
2022-10-14T20:08:41.843Z,2.70
2022-10-14T20:11:14.529Z,3.20
2022-10-14T20:13:43.015Z,2.28
2022-10-14T20:16:10.342Z,2.70
2022-10-14T20:18:37.243Z,3.90
2022-10-14T20:21:06.020Z,3.80
2022-10-14T20:23:38.214Z,4.45
2022-10-14T20:26:07.386Z,3.58
2022-10-14T20:28:37.850Z,2.60
2022-10-14T20:31:12.714Z,3.13
2022-10-14T20:33:39.187Z,3.60
2022-10-14T20:36:08.624Z,4.43
2022-10-14T20:38:37.738Z,3.95
2022-10-14T20:41:12.076Z,3.58
2022-10-14T20:43:39.748Z,3.58
2022-10-14T20:46:06.241Z,5.17
2022-10-14T20:48:33.114Z,3.47
2022-10-14T20:50:59.700Z,3.35
2022-10-14T20:53:28.513Z,4.78
2022-10-14T20:55:54.974Z,3.13
2022-10-14T20:58:21.309Z,4.07
2022-10-14T21:00:47.733Z,3.58
2022-10-14T21:03:14.098Z,4.57
2022-10-14T21:05:40.646Z,3.95
2022-10-14T21:08:07.064Z,3.75
2022-10-14T21:10:33.471Z,4.90
2022-10-14T21:12:59.797Z,3.70
2022-10-14T21:15:26.916Z,4.70
2022-10-14T21:17:53.388Z,4.43
2022-10-14T21:20:19.779Z,5.38
2022-10-14T21:22:46.343Z,5.67
2022-10-14T21:25:12.964Z,4.25
2022-10-14T21:27:39.364Z,3.17
2022-10-14T21:30:06.522Z,4.40
2022-10-14T21:32:32.948Z,3.92
2022-10-14T21:34:59.450Z,5.70
2022-10-14T21:37:25.930Z,5.50
2022-10-14T21:39:52.259Z,6.00
2022-10-14T21:42:18.717Z,5.18
2022-10-14T21:44:45.123Z,4.50
2022-10-14T21:47:11.611Z,5.80
2022-10-14T21:49:38.053Z,4.97
2022-10-14T21:52:04.541Z,5.75
2022-10-14T21:54:31.164Z,8.27
2022-10-14T21:56:57.551Z,4.32
2022-10-14T21:59:24.044Z,5.07
2022-10-14T22:01:50.412Z,11.15
2022-10-14T22:04:16.875Z,7.00
2022-10-14T22:06:43.306Z,4.43
2022-10-14T22:09:10.242Z,5.30
2022-10-14T22:11:39.723Z,6.37
2022-10-14T22:14:08.478Z,5.65
2022-10-14T22:16:35.382Z,4.90
2022-10-14T22:19:03.827Z,4.78
2022-10-14T22:21:31.960Z,4.88
2022-10-14T22:23:59.060Z,5.37
2022-10-14T22:26:26.788Z,7.00
2022-10-14T22:29:04.923Z,8.48
2022-10-14T22:31:35.064Z,6.55
2022-10-14T22:34:04.286Z,6.68
2022-10-14T22:36:31.680Z,6.70
2022-10-14T22:38:59.629Z,11.38
2022-10-14T22:41:30.958Z,5.93
2022-10-14T22:44:00.602Z,5.20
2022-10-14T22:46:29.848Z,5.53
2022-10-14T22:48:57.382Z,5.10
2022-10-14T22:51:30.090Z,4.57
2022-10-14T22:53:56.577Z,6.13
2022-10-14T22:56:25.494Z,5.88
2022-10-14T22:58:56.649Z,5.40
2022-10-14T23:01:23.831Z,6.97
2022-10-14T23:03:50.244Z,8.57
2022-10-14T23:06:17.020Z,6.55
2022-10-14T23:08:43.622Z,8.50
2022-10-14T23:11:14.063Z,8.63
2022-10-14T23:13:40.419Z,7.67
2022-10-14T23:16:08.564Z,8.68
2022-10-14T23:18:37.231Z,8.18
2022-10-14T23:21:11.371Z,8.35
2022-10-14T23:23:37.769Z,7.63
2022-10-14T23:26:04.543Z,8.30
2022-10-14T23:28:31.288Z,7.75
2022-10-14T23:30:58.108Z,7.90
2022-10-14T23:33:24.470Z,7.25
2022-10-14T23:35:50.868Z,7.25
2022-10-14T23:38:17.304Z,6.77
2022-10-14T23:40:43.736Z,8.00
2022-10-14T23:43:10.153Z,9.00
2022-10-14T23:45:36.753Z,7.97
2022-10-14T23:48:03.259Z,9.45
2022-10-14T23:50:29.626Z,7.17
2022-10-14T23:52:56.004Z,7.65
2022-10-14T23:55:22.380Z,9.80
2022-10-14T23:57:48.771Z,7.88
